Terminal Aerodrome Forecast
Issued by NWS

Home | Current Version | Previous Version | Text Only | Print | Product List | Glossary On
Versions: 1 2 3 4 5 6 7 8 9 10 11 12 13 14 15 16 17 18 19 20 21 22 23 24 25 26 27 28 29 30 31 32 33 34 35 36 37 38 39 40 41 42 43 44 45 46 47 48 49 50
000
FTUS41 KBUF 192021 AAB
TAFJHW
TAF AMD
KJHW 192021Z 1920/2018 31012KT 5SM BR VCSH SCT003 OVC025
      TEMPO 1920/1922 1/4SM FG VV001
     FM192200 33008KT 2SM RA BR OVC007
     FM200000 03012KT 3SM -RA BR OVC005
     FM200900 05013KT P6SM VCSH OVC007
     FM201600 11009KT P6SM BKN015=

USA.gov is the U.S. government's official web portal to all federal, state and local government web resources and services.